Terminal Aerodrome Forecast
Issued by NWS

Home | Current Version | Previous Version | Text Only | Print | Product List | Glossary On
Versions: 1 2 3 4 5 6 7 8 9 10 11 12 13 14 15 16 17 18 19 20 21
530
FTUS46 KEKA 060552
TAFUKI
TAF
KUKI 060552Z 0606/0706 00000KT P6SM SCT120 BKN250
     FM060800 00000KT 4SM BR SCT005 BKN100 OVC200
     FM061200 00000KT 2SM BR BKN003 BKN120
     FM061500 00000KT 4SM BR BKN005
     FM061700 00000KT P6SM SCT010 BKN120
     FM062000 32003KT P6SM SKC=

USA.gov is the U.S. government's official web portal to all federal, state and local government web resources and services.